Terminal Aerodrome Forecast
Issued by NWS Greer, SC

Home | Current Version | Previous Version | Text Only | Print | Product List | Glossary On
Versions: 1 2 3 4 5 6 7 8 9 10 11 12 13 14 15 16 17 18 19 20 21 22 23 24 25 26 27 28 29 30 31 32 33 34 35 36 37 38 39 40 41
000
FTUS42 KGSP 291315 AAA
TAFAVL
TAF AMD
KAVL 291315Z 2913/3012 18004KT P6SM VCSH SCT020 BKN035
     FM292100 13003KT P6SM BKN045 PROB30 2922/2923 4SM TSRA BKN040CB
     FM292300 00000KT P6SM BKN040=

USA.gov is the U.S. government's official web portal to all federal, state and local government web resources and services.